sensor_id;sensor_type;location;lat;lon;timestamp;P1;durP1;ratioP1;P2;durP2;ratioP2
21297;SDS011;10808;48.010;11.326;2022-11-20T00:01:09;3.58;;;2.50;;
21297;SDS011;10808;48.010;11.326;2022-11-20T00:03:37;3.70;;;2.73;;
21297;SDS011;10808;48.010;11.326;2022-11-20T00:06:04;3.50;;;2.70;;
21297;SDS011;10808;48.010;11.326;2022-11-20T00:08:32;3.13;;;2.45;;
21297;SDS011;10808;48.010;11.326;2022-11-20T00:11:02;3.33;;;2.40;;
21297;SDS011;10808;48.010;11.326;2022-11-20T00:13:32;5.43;;;2.88;;
21297;SDS011;10808;48.010;11.326;2022-11-20T00:15:59;4.28;;;2.70;;
21297;SDS011;10808;48.010;11.326;2022-11-20T00:18:27;3.85;;;3.00;;
21297;SDS011;10808;48.010;11.326;2022-11-20T00:20:53;4.60;;;2.78;;
21297;SDS011;10808;48.010;11.326;2022-11-20T00:23:25;3.73;;;2.77;;
21297;SDS011;10808;48.010;11.326;2022-11-20T00:25:51;4.20;;;2.90;;
21297;SDS011;10808;48.010;11.326;2022-11-20T00:28:17;3.13;;;2.55;;
21297;SDS011;10808;48.010;11.326;2022-11-20T00:30:43;3.85;;;2.67;;
21297;SDS011;10808;48.010;11.326;2022-11-20T00:33:09;3.97;;;2.97;;
21297;SDS011;10808;48.010;11.326;2022-11-20T00:35:36;3.38;;;2.67;;
21297;SDS011;10808;48.010;11.326;2022-11-20T00:38:02;3.00;;;2.55;;
21297;SDS011;10808;48.010;11.326;2022-11-20T00:40:28;5.05;;;2.80;;
21297;SDS011;10808;48.010;11.326;2022-11-20T00:42:54;3.47;;;2.78;;
21297;SDS011;10808;48.010;11.326;2022-11-20T00:45:20;3.13;;;2.50;;
21297;SDS011;10808;48.010;11.326;2022-11-20T00:47:46;3.38;;;2.60;;
21297;SDS011;10808;48.010;11.326;2022-11-20T00:50:12;3.38;;;2.30;;
21297;SDS011;10808;48.010;11.326;2022-11-20T00:52:39;3.70;;;2.70;;
21297;SDS011;10808;48.010;11.326;2022-11-20T00:55:05;3.58;;;2.50;;
21297;SDS011;10808;48.010;11.326;2022-11-20T00:57:32;3.85;;;2.70;;
21297;SDS011;10808;48.010;11.326;2022-11-20T00:59:58;3.22;;;2.70;;
21297;SDS011;10808;48.010;11.326;2022-11-20T01:02:24;4.13;;;2.30;;
21297;SDS011;10808;48.010;11.326;2022-11-20T01:04:50;3.55;;;2.25;;
21297;SDS011;10808;48.010;11.326;2022-11-20T01:07:16;4.22;;;2.38;;
21297;SDS011;10808;48.010;11.326;2022-11-20T01:09:42;3.45;;;2.22;;
21297;SDS011;10808;48.010;11.326;2022-11-20T01:12:08;2.60;;;2.40;;
21297;SDS011;10808;48.010;11.326;2022-11-20T01:14:34;4.45;;;2.60;;
21297;SDS011;10808;48.010;11.326;2022-11-20T01:17:01;3.13;;;2.30;;
21297;SDS011;10808;48.010;11.326;2022-11-20T01:19:27;3.80;;;2.58;;
21297;SDS011;10808;48.010;11.326;2022-11-20T01:21:53;3.38;;;2.80;;
21297;SDS011;10808;48.010;11.326;2022-11-20T01:24:20;3.70;;;2.30;;
21297;SDS011;10808;48.010;11.326;2022-11-20T01:26:48;2.78;;;2.47;;
21297;SDS011;10808;48.010;11.326;2022-11-20T01:29:17;3.70;;;2.30;;
21297;SDS011;10808;48.010;11.326;2022-11-20T01:31:50;2.90;;;2.20;;
21297;SDS011;10808;48.010;11.326;2022-11-20T01:34:18;3.40;;;2.53;;
21297;SDS011;10808;48.010;11.326;2022-11-20T01:36:46;2.95;;;2.60;;
21297;SDS011;10808;48.010;11.326;2022-11-20T01:39:16;2.97;;;2.37;;
21297;SDS011;10808;48.010;11.326;2022-11-20T01:41:50;5.30;;;2.90;;
21297;SDS011;10808;48.010;11.326;2022-11-20T01:44:55;3.42;;;2.58;;
21297;SDS011;10808;48.010;11.326;2022-11-20T01:47:37;4.97;;;2.70;;
21297;SDS011;10808;48.010;11.326;2022-11-20T01:50:14;2.77;;;2.40;;
21297;SDS011;10808;48.010;11.326;2022-11-20T01:52:51;3.88;;;2.63;;
21297;SDS011;10808;48.010;11.326;2022-11-20T01:55:25;6.55;;;2.70;;
21297;SDS011;10808;48.010;11.326;2022-11-20T01:57:56;4.03;;;3.08;;
21297;SDS011;10808;48.010;11.326;2022-11-20T02:00:24;4.65;;;3.40;;
21297;SDS011;10808;48.010;11.326;2022-11-20T02:02:51;4.22;;;2.90;;
21297;SDS011;10808;48.010;11.326;2022-11-20T02:05:36;4.60;;;3.55;;
21297;SDS011;10808;48.010;11.326;2022-11-20T02:08:10;4.45;;;3.22;;
21297;SDS011;10808;48.010;11.326;2022-11-20T02:10:38;6.83;;;3.63;;
21297;SDS011;10808;48.010;11.326;2022-11-20T02:13:04;5.47;;;3.45;;
21297;SDS011;10808;48.010;11.326;2022-11-20T02:15:49;4.80;;;3.50;;
21297;SDS011;10808;48.010;11.326;2022-11-20T02:18:17;4.93;;;3.38;;
21297;SDS011;10808;48.010;11.326;2022-11-20T02:20:46;4.53;;;3.40;;
21297;SDS011;10808;48.010;11.326;2022-11-20T02:23:25;4.50;;;3.42;;
21297;SDS011;10808;48.010;11.326;2022-11-20T02:25:59;5.07;;;3.50;;
21297;SDS011;10808;48.010;11.326;2022-11-20T02:28:30;4.45;;;3.60;;
21297;SDS011;10808;48.010;11.326;2022-11-20T02:30:56;4.47;;;3.17;;
21297;SDS011;10808;48.010;11.326;2022-11-20T02:33:22;5.10;;;3.38;;
21297;SDS011;10808;48.010;11.326;2022-11-20T02:35:48;4.13;;;3.28;;
21297;SDS011;10808;48.010;11.326;2022-11-20T02:38:14;5.35;;;3.65;;
21297;SDS011;10808;48.010;11.326;2022-11-20T02:40:41;4.60;;;3.53;;
21297;SDS011;10808;48.010;11.326;2022-11-20T02:43:07;5.03;;;3.50;;
21297;SDS011;10808;48.010;11.326;2022-11-20T02:45:34;5.90;;;4.00;;
21297;SDS011;10808;48.010;11.326;2022-11-20T02:48:00;4.03;;;3.47;;
21297;SDS011;10808;48.010;11.326;2022-11-20T02:50:26;4.93;;;3.65;;
21297;SDS011;10808;48.010;11.326;2022-11-20T02:52:52;3.95;;;3.38;;
21297;SDS011;10808;48.010;11.326;2022-11-20T02:55:18;4.45;;;3.75;;
21297;SDS011;10808;48.010;11.326;2022-11-20T02:57:44;5.47;;;3.63;;
21297;SDS011;10808;48.010;11.326;2022-11-20T03:00:11;3.85;;;3.45;;
21297;SDS011;10808;48.010;11.326;2022-11-20T03:02:44;5.05;;;3.80;;
21297;SDS011;10808;48.010;11.326;2022-11-20T03:05:10;5.13;;;3.75;;
21297;SDS011;10808;48.010;11.326;2022-11-20T03:07:36;5.87;;;3.60;;
21297;SDS011;10808;48.010;11.326;2022-11-20T03:10:03;4.47;;;3.55;;
21297;SDS011;10808;48.010;11.326;2022-11-20T03:12:30;4.10;;;3.40;;
21297;SDS011;10808;48.010;11.326;2022-11-20T03:14:56;4.10;;;3.65;;
21297;SDS011;10808;48.010;11.326;2022-11-20T03:17:22;5.40;;;3.80;;
21297;SDS011;10808;48.010;11.326;2022-11-20T03:19:50;4.90;;;3.40;;
21297;SDS011;10808;48.010;11.326;2022-11-20T03:22:16;4.65;;;3.30;;
21297;SDS011;10808;48.010;11.326;2022-11-20T03:24:42;4.20;;;3.17;;
21297;SDS011;10808;48.010;11.326;2022-11-20T03:27:09;3.65;;;3.20;;
21297;SDS011;10808;48.010;11.326;2022-11-20T03:29:35;4.10;;;3.00;;
21297;SDS011;10808;48.010;11.326;2022-11-20T03:32:01;3.60;;;3.03;;
21297;SDS011;10808;48.010;11.326;2022-11-20T03:34:27;4.10;;;3.20;;
21297;SDS011;10808;48.010;11.326;2022-11-20T03:36:53;4.33;;;3.30;;
21297;SDS011;10808;48.010;11.326;2022-11-20T03:39:19;4.05;;;3.30;;
21297;SDS011;10808;48.010;11.326;2022-11-20T03:41:45;4.47;;;3.40;;
21297;SDS011;10808;48.010;11.326;2022-11-20T03:44:12;5.05;;;3.78;;
21297;SDS011;10808;48.010;11.326;2022-11-20T03:46:38;4.57;;;3.40;;
21297;SDS011;10808;48.010;11.326;2022-11-20T03:49:04;7.60;;;4.03;;
21297;SDS011;10808;48.010;11.326;2022-11-20T03:51:32;4.97;;;3.60;;
21297;SDS011;10808;48.010;11.326;2022-11-20T03:54:01;5.07;;;3.57;;
21297;SDS011;10808;48.010;11.326;2022-11-20T03:56:33;5.18;;;3.80;;
21297;SDS011;10808;48.010;11.326;2022-11-20T03:59:00;5.20;;;3.63;;
21297;SDS011;10808;48.010;11.326;2022-11-20T04:01:27;4.75;;;3.85;;
21297;SDS011;10808;48.010;11.326;2022-11-20T04:03:58;4.13;;;3.60;;
21297;SDS011;10808;48.010;11.326;2022-11-20T04:06:28;4.97;;;4.13;;
21297;SDS011;10808;48.010;11.326;2022-11-20T04:08:56;6.38;;;4.03;;
21297;SDS011;10808;48.010;11.326;2022-11-20T04:11:25;5.55;;;4.15;;
21297;SDS011;10808;48.010;11.326;2022-11-20T04:13:54;5.28;;;3.83;;
21297;SDS011;10808;48.010;11.326;2022-11-20T04:16:22;5.07;;;3.80;;
21297;SDS011;10808;48.010;11.326;2022-11-20T04:18:53;4.38;;;3.70;;
21297;SDS011;10808;48.010;11.326;2022-11-20T04:21:24;5.57;;;3.70;;
21297;SDS011;10808;48.010;11.326;2022-11-20T04:23:51;4.80;;;3.80;;
21297;SDS011;10808;48.010;11.326;2022-11-20T04:26:18;4.83;;;3.97;;
21297;SDS011;10808;48.010;11.326;2022-11-20T04:28:45;4.68;;;4.07;;
21297;SDS011;10808;48.010;11.326;2022-11-20T04:31:13;5.03;;;4.00;;
21297;SDS011;10808;48.010;11.326;2022-11-20T04:33:47;5.05;;;4.05;;
21297;SDS011;10808;48.010;11.326;2022-11-20T04:36:15;5.57;;;4.07;;
21297;SDS011;10808;48.010;11.326;2022-11-20T04:38:43;5.85;;;4.00;;
21297;SDS011;10808;48.010;11.326;2022-11-20T04:41:11;4.90;;;4.35;;
21297;SDS011;10808;48.010;11.326;2022-11-20T04:43:47;6.63;;;4.75;;
21297;SDS011;10808;48.010;11.326;2022-11-20T04:46:18;6.60;;;4.57;;
21297;SDS011;10808;48.010;11.326;2022-11-20T04:48:45;5.30;;;4.40;;
21297;SDS011;10808;48.010;11.326;2022-11-20T04:51:12;5.13;;;4.53;;
21297;SDS011;10808;48.010;11.326;2022-11-20T04:53:39;5.95;;;4.25;;
21297;SDS011;10808;48.010;11.326;2022-11-20T04:56:07;4.85;;;4.22;;
21297;SDS011;10808;48.010;11.326;2022-11-20T04:58:35;5.07;;;4.30;;
21297;SDS011;10808;48.010;11.326;2022-11-20T05:01:03;7.07;;;4.35;;
21297;SDS011;10808;48.010;11.326;2022-11-20T05:03:34;5.65;;;4.43;;
21297;SDS011;10808;48.010;11.326;2022-11-20T05:06:02;4.80;;;4.30;;
21297;SDS011;10808;48.010;11.326;2022-11-20T05:08:29;4.40;;;4.00;;
21297;SDS011;10808;48.010;11.326;2022-11-20T05:11:03;5.03;;;4.47;;
21297;SDS011;10808;48.010;11.326;2022-11-20T05:13:34;5.00;;;3.95;;
21297;SDS011;10808;48.010;11.326;2022-11-20T05:16:01;5.23;;;4.23;;
21297;SDS011;10808;48.010;11.326;2022-11-20T05:18:28;4.88;;;4.15;;
21297;SDS011;10808;48.010;11.326;2022-11-20T05:20:55;5.90;;;4.60;;
21297;SDS011;10808;48.010;11.326;2022-11-20T05:23:22;5.03;;;4.38;;
21297;SDS011;10808;48.010;11.326;2022-11-20T05:25:53;5.03;;;4.23;;
21297;SDS011;10808;48.010;11.326;2022-11-20T05:28:20;4.93;;;3.97;;
21297;SDS011;10808;48.010;11.326;2022-11-20T05:30:46;5.45;;;4.25;;
21297;SDS011;10808;48.010;11.326;2022-11-20T05:33:13;4.20;;;3.70;;
21297;SDS011;10808;48.010;11.326;2022-11-20T05:35:40;4.10;;;3.67;;
21297;SDS011;10808;48.010;11.326;2022-11-20T05:38:06;4.25;;;3.55;;
21297;SDS011;10808;48.010;11.326;2022-11-20T05:40:32;4.53;;;3.40;;
21297;SDS011;10808;48.010;11.326;2022-11-20T05:42:59;3.63;;;3.10;;
21297;SDS011;10808;48.010;11.326;2022-11-20T05:45:25;3.50;;;3.10;;
21297;SDS011;10808;48.010;11.326;2022-11-20T05:47:52;3.97;;;3.42;;
21297;SDS011;10808;48.010;11.326;2022-11-20T05:50:18;3.85;;;2.90;;
21297;SDS011;10808;48.010;11.326;2022-11-20T05:52:44;2.95;;;2.70;;
21297;SDS011;10808;48.010;11.326;2022-11-20T05:55:11;3.58;;;2.80;;
21297;SDS011;10808;48.010;11.326;2022-11-20T05:57:37;2.90;;;2.53;;
21297;SDS011;10808;48.010;11.326;2022-11-20T06:00:04;3.72;;;2.65;;
21297;SDS011;10808;48.010;11.326;2022-11-20T06:02:30;2.90;;;2.33;;
21297;SDS011;10808;48.010;11.326;2022-11-20T06:04:59;4.40;;;2.30;;
21297;SDS011;10808;48.010;11.326;2022-11-20T06:07:25;3.67;;;2.28;;
21297;SDS011;10808;48.010;11.326;2022-11-20T06:09:51;2.70;;;2.17;;
21297;SDS011;10808;48.010;11.326;2022-11-20T06:12:17;3.22;;;2.20;;
21297;SDS011;10808;48.010;11.326;2022-11-20T06:14:44;3.25;;;2.00;;
21297;SDS011;10808;48.010;11.326;2022-11-20T06:17:10;2.00;;;1.80;;
21297;SDS011;10808;48.010;11.326;2022-11-20T06:19:36;3.70;;;2.20;;
21297;SDS011;10808;48.010;11.326;2022-11-20T06:22:02;3.63;;;2.30;;
21297;SDS011;10808;48.010;11.326;2022-11-20T06:24:29;4.15;;;2.88;;
21297;SDS011;10808;48.010;11.326;2022-11-20T06:26:55;5.47;;;3.10;;
21297;SDS011;10808;48.010;11.326;2022-11-20T06:29:21;3.50;;;2.92;;
21297;SDS011;10808;48.010;11.326;2022-11-20T06:31:47;3.40;;;3.10;;
21297;SDS011;10808;48.010;11.326;2022-11-20T06:34:13;4.90;;;3.37;;
21297;SDS011;10808;48.010;11.326;2022-11-20T06:36:39;5.13;;;3.35;;
21297;SDS011;10808;48.010;11.326;2022-11-20T06:39:05;5.10;;;3.38;;
21297;SDS011;10808;48.010;11.326;2022-11-20T06:41:31;4.40;;;3.43;;
21297;SDS011;10808;48.010;11.326;2022-11-20T06:43:58;4.32;;;3.63;;
21297;SDS011;10808;48.010;11.326;2022-11-20T06:46:24;5.38;;;4.18;;
21297;SDS011;10808;48.010;11.326;2022-11-20T06:48:50;4.95;;;4.03;;
21297;SDS011;10808;48.010;11.326;2022-11-20T06:51:16;5.20;;;3.97;;
21297;SDS011;10808;48.010;11.326;2022-11-20T06:53:43;5.38;;;4.00;;
21297;SDS011;10808;48.010;11.326;2022-11-20T06:56:09;4.77;;;4.13;;
21297;SDS011;10808;48.010;11.326;2022-11-20T06:58:35;5.25;;;4.50;;
21297;SDS011;10808;48.010;11.326;2022-11-20T07:01:03;5.65;;;4.45;;
21297;SDS011;10808;48.010;11.326;2022-11-20T07:03:32;6.50;;;5.00;;
21297;SDS011;10808;48.010;11.326;2022-11-20T07:05:58;5.60;;;4.80;;
21297;SDS011;10808;48.010;11.326;2022-11-20T07:08:26;6.20;;;4.93;;
21297;SDS011;10808;48.010;11.326;2022-11-20T07:10:52;7.03;;;4.85;;
21297;SDS011;10808;48.010;11.326;2022-11-20T07:13:22;5.82;;;4.35;;
21297;SDS011;10808;48.010;11.326;2022-11-20T07:15:48;6.40;;;4.93;;
21297;SDS011;10808;48.010;11.326;2022-11-20T07:18:15;5.50;;;4.90;;
21297;SDS011;10808;48.010;11.326;2022-11-20T07:20:41;6.07;;;4.00;;
21297;SDS011;10808;48.010;11.326;2022-11-20T07:23:09;4.05;;;3.50;;
21297;SDS011;10808;48.010;11.326;2022-11-20T07:25:35;4.43;;;3.78;;
21297;SDS011;10808;48.010;11.326;2022-11-20T07:28:01;4.60;;;3.70;;
21297;SDS011;10808;48.010;11.326;2022-11-20T07:30:27;4.43;;;3.45;;
21297;SDS011;10808;48.010;11.326;2022-11-20T07:32:54;7.20;;;3.95;;
21297;SDS011;10808;48.010;11.326;2022-11-20T07:35:21;4.60;;;3.70;;
21297;SDS011;10808;48.010;11.326;2022-11-20T07:37:48;4.88;;;3.85;;
21297;SDS011;10808;48.010;11.326;2022-11-20T07:40:15;4.78;;;3.90;;
21297;SDS011;10808;48.010;11.326;2022-11-20T07:42:51;5.22;;;4.53;;
21297;SDS011;10808;48.010;11.326;2022-11-20T07:45:19;5.80;;;4.47;;
21297;SDS011;10808;48.010;11.326;2022-11-20T07:47:46;4.80;;;4.25;;
21297;SDS011;10808;48.010;11.326;2022-11-20T07:50:13;5.23;;;4.23;;
21297;SDS011;10808;48.010;11.326;2022-11-20T07:52:40;10.07;;;6.05;;
21297;SDS011;10808;48.010;11.326;2022-11-20T07:55:06;4.20;;;3.45;;
21297;SDS011;10808;48.010;11.326;2022-11-20T07:57:33;5.45;;;3.70;;
21297;SDS011;10808;48.010;11.326;2022-11-20T07:59:59;4.32;;;3.40;;
21297;SDS011;10808;48.010;11.326;2022-11-20T08:02:26;3.72;;;3.30;;
21297;SDS011;10808;48.010;11.326;2022-11-20T08:04:52;5.50;;;4.00;;
21297;SDS011;10808;48.010;11.326;2022-11-20T08:07:18;4.38;;;3.30;;
21297;SDS011;10808;48.010;11.326;2022-11-20T08:09:44;4.88;;;3.85;;
21297;SDS011;10808;48.010;11.326;2022-11-20T08:12:16;4.72;;;3.80;;
21297;SDS011;10808;48.010;11.326;2022-11-20T08:15:03;4.90;;;3.47;;
21297;SDS011;10808;48.010;11.326;2022-11-20T08:17:30;4.97;;;3.90;;
21297;SDS011;10808;48.010;11.326;2022-11-20T08:19:57;6.40;;;4.72;;
21297;SDS011;10808;48.010;11.326;2022-11-20T08:22:23;5.68;;;3.90;;
21297;SDS011;10808;48.010;11.326;2022-11-20T08:24:50;4.53;;;3.70;;
21297;SDS011;10808;48.010;11.326;2022-11-20T08:27:16;5.00;;;3.92;;
21297;SDS011;10808;48.010;11.326;2022-11-20T08:29:42;3.67;;;2.90;;
21297;SDS011;10808;48.010;11.326;2022-11-20T08:32:08;4.57;;;3.13;;
21297;SDS011;10808;48.010;11.326;2022-11-20T08:34:34;4.68;;;3.03;;
21297;SDS011;10808;48.010;11.326;2022-11-20T08:37:02;4.20;;;3.60;;
21297;SDS011;10808;48.010;11.326;2022-11-20T08:39:29;4.85;;;3.13;;
21297;SDS011;10808;48.010;11.326;2022-11-20T08:41:55;6.22;;;3.70;;
21297;SDS011;10808;48.010;11.326;2022-11-20T08:44:21;7.93;;;4.10;;
21297;SDS011;10808;48.010;11.326;2022-11-20T08:46:47;8.23;;;4.93;;
21297;SDS011;10808;48.010;11.326;2022-11-20T08:49:13;7.10;;;4.78;;
21297;SDS011;10808;48.010;11.326;2022-11-20T08:51:40;5.75;;;3.75;;
21297;SDS011;10808;48.010;11.326;2022-11-20T08:54:07;6.60;;;3.72;;
21297;SDS011;10808;48.010;11.326;2022-11-20T08:56:35;6.50;;;4.13;;
21297;SDS011;10808;48.010;11.326;2022-11-20T08:59:01;6.63;;;4.45;;
21297;SDS011;10808;48.010;11.326;2022-11-20T09:01:27;7.05;;;4.38;;
21297;SDS011;10808;48.010;11.326;2022-11-20T09:03:56;6.78;;;3.95;;
21297;SDS011;10808;48.010;11.326;2022-11-20T09:06:22;4.67;;;3.43;;
21297;SDS011;10808;48.010;11.326;2022-11-20T09:08:51;5.63;;;3.97;;
21297;SDS011;10808;48.010;11.326;2022-11-20T09:11:18;6.13;;;3.85;;
21297;SDS011;10808;48.010;11.326;2022-11-20T09:13:44;4.10;;;3.00;;
21297;SDS011;10808;48.010;11.326;2022-11-20T09:16:10;7.80;;;4.75;;
21297;SDS011;10808;48.010;11.326;2022-11-20T09:18:36;9.00;;;5.28;;
21297;SDS011;10808;48.010;11.326;2022-11-20T09:21:04;6.22;;;4.45;;
21297;SDS011;10808;48.010;11.326;2022-11-20T09:23:32;5.23;;;3.70;;
21297;SDS011;10808;48.010;11.326;2022-11-20T09:26:12;5.88;;;3.80;;
21297;SDS011;10808;48.010;11.326;2022-11-20T09:28:40;6.65;;;4.03;;
21297;SDS011;10808;48.010;11.326;2022-11-20T09:31:06;7.85;;;4.13;;
21297;SDS011;10808;48.010;11.326;2022-11-20T09:33:34;6.15;;;3.38;;
21297;SDS011;10808;48.010;11.326;2022-11-20T09:36:01;4.20;;;3.03;;
21297;SDS011;10808;48.010;11.326;2022-11-20T09:38:27;4.38;;;2.67;;
21297;SDS011;10808;48.010;11.326;2022-11-20T09:40:57;3.50;;;2.50;;
21297;SDS011;10808;48.010;11.326;2022-11-20T09:43:51;3.50;;;2.50;;
21297;SDS011;10808;48.010;11.326;2022-11-20T09:54:29;3.55;;;3.00;;
21297;SDS011;10808;48.010;11.326;2022-11-20T09:56:59;3.20;;;2.80;;
21297;SDS011;10808;48.010;11.326;2022-11-20T09:59:32;6.07;;;3.78;;
21297;SDS011;10808;48.010;11.326;2022-11-20T10:05:04;4.88;;;3.63;;
21297;SDS011;10808;48.010;11.326;2022-11-20T10:07:43;5.30;;;3.65;;
21297;SDS011;10808;48.010;11.326;2022-11-20T10:10:14;3.97;;;3.13;;
21297;SDS011;10808;48.010;11.326;2022-11-20T10:12:55;5.53;;;3.60;;
21297;SDS011;10808;48.010;11.326;2022-11-20T10:26:57;2.08;;;1.55;;
21297;SDS011;10808;48.010;11.326;2022-11-20T10:29:36;2.87;;;2.20;;
21297;SDS011;10808;48.010;11.326;2022-11-20T10:32:11;2.15;;;1.40;;
21297;SDS011;10808;48.010;11.326;2022-11-20T10:34:52;2.63;;;1.60;;
21297;SDS011;10808;48.010;11.326;2022-11-20T10:37:25;2.47;;;1.35;;
21297;SDS011;10808;48.010;11.326;2022-11-20T10:40:04;2.28;;;1.42;;
21297;SDS011;10808;48.010;11.326;2022-11-20T10:42:55;2.40;;;1.40;;
21297;SDS011;10808;48.010;11.326;2022-11-20T10:50:34;2.67;;;1.45;;
21297;SDS011;10808;48.010;11.326;2022-11-20T10:55:57;2.50;;;2.20;;
21297;SDS011;10808;48.010;11.326;2022-11-20T11:01:18;2.53;;;2.03;;
21297;SDS011;10808;48.010;11.326;2022-11-20T11:03:52;3.85;;;2.60;;
21297;SDS011;10808;48.010;11.326;2022-11-20T11:09:08;2.00;;;1.50;;
21297;SDS011;10808;48.010;11.326;2022-11-20T11:11:41;2.22;;;1.80;;
21297;SDS011;10808;48.010;11.326;2022-11-20T11:14:12;2.78;;;1.90;;
21297;SDS011;10808;48.010;11.326;2022-11-20T11:16:50;4.35;;;2.72;;
21297;SDS011;10808;48.010;11.326;2022-11-20T11:19:17;3.30;;;2.08;;
21297;SDS011;10808;48.010;11.326;2022-11-20T11:21:56;5.00;;;3.23;;
21297;SDS011;10808;48.010;11.326;2022-11-20T11:24:23;4.22;;;2.78;;
21297;SDS011;10808;48.010;11.326;2022-11-20T11:26:56;3.05;;;2.25;;
21297;SDS011;10808;48.010;11.326;2022-11-20T11:29:32;2.67;;;2.17;;
21297;SDS011;10808;48.010;11.326;2022-11-20T11:32:08;2.10;;;1.60;;
21297;SDS011;10808;48.010;11.326;2022-11-20T11:34:37;2.42;;;1.80;;
21297;SDS011;10808;48.010;11.326;2022-11-20T11:37:04;1.92;;;1.63;;
21297;SDS011;10808;48.010;11.326;2022-11-20T11:39:38;2.80;;;1.80;;
21297;SDS011;10808;48.010;11.326;2022-11-20T11:42:07;2.20;;;1.73;;
21297;SDS011;10808;48.010;11.326;2022-11-20T11:44:44;2.08;;;1.70;;
21297;SDS011;10808;48.010;11.326;2022-11-20T11:58:43;1.85;;;1.73;;
21297;SDS011;10808;48.010;11.326;2022-11-20T12:00:54;1.20;;;1.10;;
21297;SDS011;10808;48.010;11.326;2022-11-20T12:03:37;3.60;;;1.50;;
21297;SDS011;10808;48.010;11.326;2022-11-20T12:06:10;1.65;;;1.50;;
21297;SDS011;10808;48.010;11.326;2022-11-20T12:08:43;2.58;;;1.88;;
21297;SDS011;10808;48.010;11.326;2022-11-20T12:11:30;2.30;;;1.70;;
21297;SDS011;10808;48.010;11.326;2022-11-20T12:14:09;2.97;;;2.30;;
21297;SDS011;10808;48.010;11.326;2022-11-20T12:16:45;1.80;;;1.47;;
21297;SDS011;10808;48.010;11.326;2022-11-20T12:19:12;3.22;;;1.80;;
21297;SDS011;10808;48.010;11.326;2022-11-20T12:27:12;3.17;;;1.85;;
21297;SDS011;10808;48.010;11.326;2022-11-20T12:32:56;3.00;;;1.70;;
21297;SDS011;10808;48.010;11.326;2022-11-20T12:52:36;2.33;;;2.13;;
21297;SDS011;10808;48.010;11.326;2022-11-20T12:58:01;2.00;;;1.80;;
21297;SDS011;10808;48.010;11.326;2022-11-20T13:00:38;2.20;;;2.00;;
21297;SDS011;10808;48.010;11.326;2022-11-20T13:08:25;2.33;;;2.13;;
21297;SDS011;10808;48.010;11.326;2022-11-20T13:13:33;3.72;;;2.05;;
21297;SDS011;10808;48.010;11.326;2022-11-20T13:18:39;2.20;;;2.00;;
21297;SDS011;10808;48.010;11.326;2022-11-20T13:23:41;2.97;;;2.30;;
21297;SDS011;10808;48.010;11.326;2022-11-20T13:26:17;1.90;;;1.70;;
21297;SDS011;10808;48.010;11.326;2022-11-20T13:28:46;3.33;;;2.03;;
21297;SDS011;10808;48.010;11.326;2022-11-20T13:31:31;2.50;;;2.20;;
21297;SDS011;10808;48.010;11.326;2022-11-20T13:34:00;3.25;;;2.33;;
21297;SDS011;10808;48.010;11.326;2022-11-20T13:36:29;3.22;;;2.38;;
21297;SDS011;10808;48.010;11.326;2022-11-20T13:38:57;3.15;;;2.50;;
21297;SDS011;10808;48.010;11.326;2022-11-20T13:43:54;2.70;;;2.30;;
21297;SDS011;10808;48.010;11.326;2022-11-20T13:46:34;5.20;;;3.08;;
21297;SDS011;10808;48.010;11.326;2022-11-20T13:49:06;3.63;;;2.88;;
21297;SDS011;10808;48.010;11.326;2022-11-20T13:51:37;4.45;;;2.92;;
21297;SDS011;10808;48.010;11.326;2022-11-20T14:00:20;5.17;;;4.00;;
21297;SDS011;10808;48.010;11.326;2022-11-20T14:02:53;2.70;;;2.40;;
21297;SDS011;10808;48.010;11.326;2022-11-20T14:05:55;4.78;;;3.65;;
21297;SDS011;10808;48.010;11.326;2022-11-20T14:08:33;3.30;;;2.38;;
21297;SDS011;10808;48.010;11.326;2022-11-20T14:11:18;3.50;;;2.50;;
21297;SDS011;10808;48.010;11.326;2022-11-20T14:14:29;6.07;;;4.10;;
21297;SDS011;10808;48.010;11.326;2022-11-20T14:16:40;3.33;;;2.70;;
21297;SDS011;10808;48.010;11.326;2022-11-20T14:21:51;3.03;;;2.28;;
21297;SDS011;10808;48.010;11.326;2022-11-20T14:24:20;4.40;;;2.90;;
21297;SDS011;10808;48.010;11.326;2022-11-20T14:26:48;2.72;;;2.08;;
21297;SDS011;10808;48.010;11.326;2022-11-20T14:29:17;2.30;;;1.75;;
21297;SDS011;10808;48.010;11.326;2022-11-20T14:31:45;2.45;;;1.73;;
21297;SDS011;10808;48.010;11.326;2022-11-20T14:34:14;3.65;;;2.55;;
21297;SDS011;10808;48.010;11.326;2022-11-20T14:36:44;4.78;;;2.58;;
21297;SDS011;10808;48.010;11.326;2022-11-20T14:39:20;2.83;;;2.03;;
21297;SDS011;10808;48.010;11.326;2022-11-20T14:41:50;3.28;;;2.28;;
21297;SDS011;10808;48.010;11.326;2022-11-20T14:44:17;2.65;;;1.73;;
21297;SDS011;10808;48.010;11.326;2022-11-20T14:46:48;2.08;;;1.52;;
21297;SDS011;10808;48.010;11.326;2022-11-20T14:49:15;1.92;;;1.08;;
21297;SDS011;10808;48.010;11.326;2022-11-20T14:51:42;2.22;;;1.52;;
21297;SDS011;10808;48.010;11.326;2022-11-20T14:56:35;2.72;;;1.30;;
21297;SDS011;10808;48.010;11.326;2022-11-20T14:59:01;3.00;;;1.30;;
21297;SDS011;10808;48.010;11.326;2022-11-20T15:01:28;2.50;;;1.75;;
21297;SDS011;10808;48.010;11.326;2022-11-20T15:03:59;1.70;;;1.60;;
21297;SDS011;10808;48.010;11.326;2022-11-20T15:06:34;2.60;;;1.80;;
21297;SDS011;10808;48.010;11.326;2022-11-20T15:09:02;2.85;;;1.65;;
21297;SDS011;10808;48.010;11.326;2022-11-20T15:11:31;1.85;;;1.58;;
21297;SDS011;10808;48.010;11.326;2022-11-20T15:14:03;4.38;;;3.38;;
21297;SDS011;10808;48.010;11.326;2022-11-20T15:16:32;3.90;;;2.75;;
21297;SDS011;10808;48.010;11.326;2022-11-20T15:18:58;2.38;;;1.88;;
21297;SDS011;10808;48.010;11.326;2022-11-20T15:21:25;2.43;;;1.90;;
21297;SDS011;10808;48.010;11.326;2022-11-20T15:23:52;4.18;;;2.70;;
21297;SDS011;10808;48.010;11.326;2022-11-20T15:26:25;4.50;;;2.73;;
21297;SDS011;10808;48.010;11.326;2022-11-20T15:28:54;3.38;;;2.30;;
21297;SDS011;10808;48.010;11.326;2022-11-20T15:31:21;3.65;;;2.20;;
21297;SDS011;10808;48.010;11.326;2022-11-20T15:33:48;3.13;;;1.90;;
21297;SDS011;10808;48.010;11.326;2022-11-20T15:36:15;2.15;;;1.90;;
21297;SDS011;10808;48.010;11.326;2022-11-20T15:38:41;1.90;;;1.70;;
21297;SDS011;10808;48.010;11.326;2022-11-20T15:41:07;2.78;;;2.05;;
21297;SDS011;10808;48.010;11.326;2022-11-20T15:43:50;4.47;;;2.80;;
21297;SDS011;10808;48.010;11.326;2022-11-20T15:46:16;4.35;;;2.70;;
21297;SDS011;10808;48.010;11.326;2022-11-20T15:48:51;4.55;;;2.83;;
21297;SDS011;10808;48.010;11.326;2022-11-20T15:51:26;4.82;;;2.50;;
21297;SDS011;10808;48.010;11.326;2022-11-20T15:53:55;5.40;;;3.47;;
21297;SDS011;10808;48.010;11.326;2022-11-20T15:56:22;3.30;;;2.35;;
21297;SDS011;10808;48.010;11.326;2022-11-20T15:58:48;2.90;;;2.00;;
21297;SDS011;10808;48.010;11.326;2022-11-20T16:01:15;3.85;;;2.83;;
21297;SDS011;10808;48.010;11.326;2022-11-20T16:03:43;3.70;;;2.38;;
21297;SDS011;10808;48.010;11.326;2022-11-20T16:06:10;3.45;;;2.30;;
21297;SDS011;10808;48.010;11.326;2022-11-20T16:08:36;3.13;;;2.20;;
21297;SDS011;10808;48.010;11.326;2022-11-20T16:11:02;5.20;;;2.60;;
21297;SDS011;10808;48.010;11.326;2022-11-20T16:13:30;5.45;;;3.00;;
21297;SDS011;10808;48.010;11.326;2022-11-20T16:18:47;4.78;;;3.17;;
21297;SDS011;10808;48.010;11.326;2022-11-20T16:21:13;6.37;;;3.27;;
21297;SDS011;10808;48.010;11.326;2022-11-20T16:23:40;5.25;;;3.67;;
21297;SDS011;10808;48.010;11.326;2022-11-20T16:26:15;5.38;;;3.38;;
21297;SDS011;10808;48.010;11.326;2022-11-20T16:28:42;5.78;;;3.33;;
21297;SDS011;10808;48.010;11.326;2022-11-20T16:31:12;7.47;;;4.37;;